createdAt,value
2018-03-23T00:02:06.845Z,63.65
2018-03-23T00:04:36.076Z,64.23
2018-03-23T00:07:05.497Z,63.99
2018-03-23T00:09:34.570Z,64.23
2018-03-23T00:12:03.630Z,63.45
2018-03-23T00:14:32.852Z,63.92
2018-03-23T00:17:01.995Z,64.43
2018-03-23T00:19:31.176Z,63.33
2018-03-23T00:22:00.347Z,63.14
2018-03-23T00:24:29.485Z,63.93
2018-03-23T00:26:58.443Z,63.90
2018-03-23T00:29:27.758Z,63.76
2018-03-23T00:31:56.889Z,63.80
2018-03-23T00:34:26.062Z,63.56
2018-03-23T00:36:55.071Z,63.56
2018-03-23T00:39:24.383Z,64.42
2018-03-23T00:41:53.586Z,63.94
2018-03-23T00:44:22.593Z,64.21
2018-03-23T00:46:51.627Z,64.72
2018-03-23T00:49:21.117Z,64.37
2018-03-23T00:51:50.357Z,64.40
2018-03-23T00:54:19.567Z,65.01
2018-03-23T00:56:48.709Z,65.10
2018-03-23T00:59:17.814Z,64.56
2018-03-23T01:01:47.187Z,64.67
2018-03-23T01:04:16.377Z,64.09
2018-03-23T01:06:45.577Z,64.12
2018-03-23T01:09:14.525Z,64.31
2018-03-23T01:11:43.749Z,64.19
2018-03-23T01:14:12.697Z,63.25
2018-03-23T01:16:41.573Z,63.26
2018-03-23T01:19:10.911Z,63.49
2018-03-23T01:21:40.005Z,63.31
2018-03-23T01:24:09.287Z,63.94
2018-03-23T01:26:38.421Z,63.62
2018-03-23T01:29:07.791Z,62.53
2018-03-23T01:31:36.969Z,61.92
2018-03-23T01:34:06.335Z,61.29
2018-03-23T01:36:35.978Z,60.72
2018-03-23T01:39:05.304Z,60.26
2018-03-23T01:41:34.456Z,60.55
2018-03-23T01:44:03.572Z,60.20
2018-03-23T01:46:32.588Z,59.43
2018-03-23T01:49:01.923Z,59.33
2018-03-23T01:51:32.217Z,58.53
2018-03-23T01:54:01.307Z,58.55
2018-03-23T01:56:30.634Z,57.41
2018-03-23T01:59:00.108Z,56.97
2018-03-23T02:01:29.463Z,57.72
2018-03-23T02:03:58.471Z,57.35
2018-03-23T02:06:27.843Z,57.11
2018-03-23T02:08:56.814Z,56.39
2018-03-23T02:11:25.781Z,55.25
2018-03-23T02:13:55.082Z,56.15
2018-03-23T02:16:24.536Z,55.08
2018-03-23T02:18:53.644Z,54.47
2018-03-23T02:21:22.922Z,54.35
2018-03-23T02:23:53.454Z,55.85
2018-03-23T02:26:22.555Z,56.32
2018-03-23T02:28:51.583Z,54.91
2018-03-23T02:31:20.862Z,55.02
2018-03-23T02:33:49.970Z,53.66
2018-03-23T02:36:19.922Z,54.08
2018-03-23T02:38:49.073Z,54.62
2018-03-23T02:41:18.286Z,53.55
2018-03-23T02:43:47.280Z,54.41
2018-03-23T02:46:16.797Z,53.70
2018-03-23T02:48:46.162Z,51.86
2018-03-23T02:51:15.675Z,51.04
2018-03-23T02:53:45.022Z,52.14
2018-03-23T02:56:14.528Z,51.67
2018-03-23T02:58:43.524Z,50.36
2018-03-23T03:01:12.621Z,50.16
2018-03-23T03:03:42.004Z,49.98
2018-03-23T03:06:11.022Z,48.67
2018-03-23T03:08:40.171Z,49.06
2018-03-23T03:11:09.523Z,48.58
2018-03-23T03:13:38.447Z,48.83
2018-03-23T03:16:07.770Z,47.94
2018-03-23T03:18:37.020Z,47.83
2018-03-23T03:21:06.090Z,48.78
2018-03-23T03:23:35.242Z,48.01
2018-03-23T03:26:05.218Z,46.56
2018-03-23T03:28:34.412Z,45.90
2018-03-23T03:31:03.320Z,45.62
2018-03-23T03:33:32.474Z,45.98
2018-03-23T03:36:01.536Z,45.52
2018-03-23T03:38:30.900Z,45.79
2018-03-23T03:41:00.130Z,45.29
2018-03-23T03:43:29.364Z,43.92
2018-03-23T03:45:58.301Z,44.29
2018-03-23T03:48:27.666Z,43.59
2018-03-23T03:50:56.955Z,43.24
2018-03-23T03:53:26.471Z,43.65
2018-03-23T03:55:55.604Z,41.54
2018-03-23T03:58:24.743Z,40.90
2018-03-23T04:00:54.038Z,42.01
2018-03-23T04:03:22.990Z,42.47
2018-03-23T04:05:52.155Z,42.04
2018-03-23T04:08:21.200Z,41.71
2018-03-23T04:10:50.281Z,41.91
2018-03-23T04:13:19.588Z,40.71
2018-03-23T04:15:48.433Z,40.93
2018-03-23T04:18:17.669Z,40.90
2018-03-23T04:20:46.818Z,39.03
2018-03-23T04:23:16.140Z,40.73
2018-03-23T04:25:45.374Z,38.38
2018-03-23T04:28:14.842Z,39.28
2018-03-23T04:30:43.924Z,38.61
2018-03-23T04:33:13.597Z,38.68
2018-03-23T04:35:42.750Z,37.71
2018-03-23T04:38:12.100Z,37.55
2018-03-23T04:40:41.235Z,36.09
2018-03-23T04:43:10.713Z,35.83
2018-03-23T04:45:40.081Z,36.19
2018-03-23T04:48:09.149Z,36.27
2018-03-23T04:50:38.356Z,36.74
2018-03-23T04:53:07.685Z,35.74
2018-03-23T04:55:36.957Z,36.44
2018-03-23T04:58:06.283Z,36.32
2018-03-23T05:00:35.813Z,36.01
2018-03-23T05:03:04.982Z,34.98
2018-03-23T05:05:34.298Z,33.94
2018-03-23T05:08:03.833Z,34.85
2018-03-23T05:10:33.117Z,35.38
2018-03-23T05:13:23.580Z,34.58
2018-03-23T05:15:53.188Z,34.21
2018-03-23T05:18:22.189Z,32.71
2018-03-23T05:20:51.743Z,33.51
2018-03-23T05:23:21.188Z,32.30
2018-03-23T05:25:50.676Z,33.32
2018-03-23T05:28:20.237Z,32.31
2018-03-23T05:30:49.502Z,33.15
2018-03-23T05:33:18.954Z,32.09
2018-03-23T05:35:48.635Z,31.17
2018-03-23T05:38:17.857Z,31.78
2018-03-23T05:40:47.086Z,32.24
2018-03-23T05:43:16.040Z,31.04
2018-03-23T05:45:45.557Z,31.62
2018-03-23T05:48:14.997Z,30.42
2018-03-23T05:50:44.536Z,29.03
2018-03-23T05:53:14.005Z,30.00
2018-03-23T05:55:43.419Z,29.81
2018-03-23T05:58:13.345Z,29.21
2018-03-23T06:00:42.715Z,30.18
2018-03-23T06:03:12.281Z,28.42
2018-03-23T06:05:42.638Z,28.56
2018-03-23T06:08:13.913Z,27.94
2018-03-23T06:10:43.270Z,29.74
2018-03-23T06:13:12.648Z,29.03
2018-03-23T06:15:41.800Z,30.34
2018-03-23T06:18:11.000Z,30.26
2018-03-23T06:20:40.525Z,30.31
2018-03-23T06:23:09.592Z,31.79
2018-03-23T06:25:38.707Z,31.10
2018-03-23T06:28:08.252Z,32.90
2018-03-23T06:30:37.680Z,31.07
2018-03-23T06:33:07.164Z,30.39
2018-03-23T06:35:36.235Z,29.48
2018-03-23T06:38:05.618Z,29.57
2018-03-23T06:40:36.557Z,28.95
2018-03-23T06:43:07.469Z,28.65
2018-03-23T06:45:36.857Z,29.48
2018-03-23T06:48:06.994Z,28.94
2018-03-23T06:50:36.474Z,30.32
2018-03-23T06:53:05.575Z,30.17
2018-03-23T06:55:34.574Z,27.29
2018-03-23T06:58:04.092Z,26.75
2018-03-23T07:02:47.196Z,27.78
2018-03-23T07:05:16.303Z,26.57
2018-03-23T07:07:45.201Z,26.26
2018-03-23T07:10:14.258Z,26.31
2018-03-23T07:12:43.605Z,27.02
2018-03-23T07:15:13.373Z,27.52
2018-03-23T07:17:42.885Z,29.22
2018-03-23T07:20:12.403Z,28.12
2018-03-23T07:22:41.685Z,28.82
2018-03-23T07:25:11.707Z,26.93
2018-03-23T07:27:40.989Z,25.48
2018-03-23T07:30:10.069Z,24.98
2018-03-23T07:32:39.600Z,25.36
2018-03-23T07:35:08.966Z,25.88
2018-03-23T07:37:38.486Z,26.30
2018-03-23T07:40:07.874Z,25.08
2018-03-23T07:42:37.394Z,24.21
2018-03-23T07:45:07.024Z,25.65
2018-03-23T07:47:36.532Z,25.17
2018-03-23T07:50:10.144Z,24.43
2018-03-23T07:52:39.884Z,24.52
2018-03-23T07:55:09.611Z,23.24
2018-03-23T07:57:39.186Z,23.85
2018-03-23T08:00:08.351Z,23.89
2018-03-23T08:02:38.041Z,23.23
2018-03-23T08:05:08.435Z,23.29
2018-03-23T08:07:37.997Z,24.32
2018-03-23T08:10:07.382Z,24.45
2018-03-23T08:12:36.610Z,26.59
2018-03-23T08:15:06.191Z,25.58
2018-03-23T08:17:35.494Z,25.52
2018-03-23T08:20:05.127Z,26.34
2018-03-23T08:22:36.168Z,27.88
2018-03-23T08:25:06.882Z,28.19
2018-03-23T08:27:36.755Z,25.22
2018-03-23T08:30:06.373Z,25.60
2018-03-23T08:32:36.138Z,26.75
2018-03-23T08:35:05.893Z,25.91
2018-03-23T08:37:35.608Z,25.55
2018-03-23T08:40:06.049Z,24.71
2018-03-23T08:42:35.773Z,26.14
2018-03-23T08:45:05.534Z,26.21
2018-03-23T08:47:35.202Z,25.62
2018-03-23T08:50:05.083Z,26.50
2018-03-23T08:52:34.924Z,26.13
2018-03-23T08:55:04.292Z,25.92
2018-03-23T08:57:33.636Z,25.34
2018-03-23T09:00:04.955Z,25.81
2018-03-23T09:02:35.784Z,25.00
2018-03-23T09:05:05.355Z,24.66
2018-03-23T09:07:34.882Z,24.37
2018-03-23T09:10:04.375Z,24.54
2018-03-23T09:12:33.862Z,25.02
2018-03-23T09:15:06.425Z,24.59
2018-03-23T09:17:36.121Z,24.82
2018-03-23T09:20:05.899Z,24.45
2018-03-23T09:22:35.590Z,24.81
2018-03-23T09:25:06.666Z,25.83
2018-03-23T09:27:36.483Z,25.04
2018-03-23T09:30:06.923Z,25.52
2018-03-23T09:32:36.155Z,25.92
2018-03-23T09:35:06.149Z,25.79
2018-03-23T09:37:36.426Z,26.35
2018-03-23T09:40:06.116Z,26.70
2018-03-23T09:42:37.838Z,26.37
2018-03-23T09:45:07.803Z,25.39
2018-03-23T09:47:37.986Z,25.23
2018-03-23T09:50:07.359Z,25.47
2018-03-23T09:52:37.801Z,25.18
2018-03-23T09:55:07.727Z,26.03
2018-03-23T09:57:37.900Z,25.18
2018-03-23T10:00:07.979Z,25.83
2018-03-23T10:02:39.909Z,25.21
2018-03-23T10:05:12.188Z,25.74
2018-03-23T10:07:42.472Z,25.85
2018-03-23T10:10:14.132Z,25.95
2018-03-23T10:12:44.153Z,25.76
2018-03-23T10:15:14.082Z,27.26
2018-03-23T10:17:44.929Z,26.28
2018-03-23T10:20:14.201Z,26.99
2018-03-23T10:22:43.987Z,27.57
2018-03-23T10:25:14.215Z,26.91
2018-03-23T10:27:43.603Z,27.82
2018-03-23T10:30:13.130Z,27.85
2018-03-23T10:32:42.566Z,27.69
2018-03-23T10:35:12.840Z,27.05
2018-03-23T10:37:46.434Z,27.45
2018-03-23T10:40:15.964Z,27.06
2018-03-23T10:42:47.112Z,26.73
2018-03-23T10:45:17.661Z,26.39
2018-03-23T10:47:48.862Z,28.46
2018-03-23T10:50:20.208Z,28.21
2018-03-23T10:52:52.527Z,26.21
2018-03-23T10:55:24.362Z,26.87
2018-03-23T10:57:54.705Z,27.35
2018-03-23T11:00:30.211Z,26.94
2018-03-23T11:02:59.871Z,26.86
2018-03-23T11:05:29.956Z,28.12
2018-03-23T11:07:59.525Z,27.48
2018-03-23T11:10:29.277Z,28.05
2018-03-23T11:12:58.616Z,28.24
2018-03-23T11:15:28.225Z,26.55
2018-03-23T11:17:57.606Z,27.07
2018-03-23T11:20:26.860Z,27.59
2018-03-23T11:22:56.738Z,28.03
2018-03-23T11:25:28.421Z,27.93
2018-03-23T11:27:57.864Z,27.42
2018-03-23T11:30:27.410Z,28.67
2018-03-23T11:32:57.041Z,28.21
2018-03-23T11:35:27.132Z,27.69
2018-03-23T11:37:56.832Z,28.19
2018-03-23T11:40:26.606Z,28.39
2018-03-23T11:42:55.990Z,28.72
2018-03-23T11:45:25.036Z,28.61
2018-03-23T11:47:54.800Z,28.66
2018-03-23T11:50:24.212Z,28.68
2018-03-23T11:52:53.670Z,30.00
2018-03-23T11:55:23.360Z,29.52
2018-03-23T11:57:52.935Z,28.92
2018-03-23T12:00:22.220Z,29.67
2018-03-23T12:02:51.824Z,30.13
2018-03-23T12:05:21.435Z,29.54
2018-03-23T12:07:52.107Z,30.47
2018-03-23T12:10:21.451Z,31.49
2018-03-23T12:12:50.994Z,30.70
2018-03-23T12:15:21.155Z,29.32
2018-03-23T12:17:50.724Z,30.87
2018-03-23T12:20:20.153Z,31.50
2018-03-23T12:22:49.470Z,31.18
2018-03-23T12:25:18.891Z,31.42
2018-03-23T12:27:48.369Z,32.03
2018-03-23T12:30:17.519Z,31.96
2018-03-23T12:32:47.024Z,32.48
2018-03-23T12:35:16.262Z,32.61
2018-03-23T12:37:45.732Z,32.24
2018-03-23T12:40:15.151Z,31.98
2018-03-23T12:42:44.631Z,32.47
2018-03-23T12:45:13.934Z,32.61
2018-03-23T12:47:43.551Z,33.14
2018-03-23T12:50:12.724Z,33.50
2018-03-23T12:52:42.268Z,32.35
2018-03-23T12:55:11.523Z,32.32
2018-03-23T12:57:40.898Z,32.36
2018-03-23T13:00:10.098Z,32.43
2018-03-23T13:02:39.225Z,32.89
2018-03-23T13:05:08.296Z,32.95
2018-03-23T13:07:37.453Z,33.07
2018-03-23T13:10:06.885Z,33.11
2018-03-23T13:12:36.329Z,33.14
2018-03-23T13:15:05.929Z,33.77
2018-03-23T13:17:35.250Z,33.55
2018-03-23T13:20:04.261Z,33.63
2018-03-23T13:22:33.633Z,33.40
2018-03-23T13:25:03.105Z,33.61
2018-03-23T13:27:32.373Z,33.84
2018-03-23T13:30:01.787Z,33.96
2018-03-23T13:32:31.229Z,34.01
2018-03-23T13:35:00.480Z,34.25
2018-03-23T13:37:29.528Z,33.94
2018-03-23T13:39:58.866Z,34.23
2018-03-23T13:42:28.232Z,34.45
2018-03-23T13:44:57.782Z,34.67
2018-03-23T13:47:27.510Z,35.07
2018-03-23T13:49:56.860Z,34.95
2018-03-23T13:52:26.331Z,35.01
2018-03-23T13:54:55.810Z,35.37
2018-03-23T13:57:25.275Z,35.23
2018-03-23T13:59:59.963Z,34.97
2018-03-23T14:02:29.533Z,34.99
2018-03-23T14:04:58.463Z,34.94
2018-03-23T14:07:27.823Z,35.42
2018-03-23T14:09:56.955Z,35.26
2018-03-23T14:12:26.455Z,35.85
2018-03-23T14:14:55.801Z,35.60
2018-03-23T14:17:24.839Z,35.59
2018-03-23T14:19:54.657Z,35.79
2018-03-23T14:22:23.989Z,35.45
2018-03-23T14:24:53.381Z,35.62
2018-03-23T14:27:22.314Z,35.85
2018-03-23T14:29:51.380Z,35.96
2018-03-23T14:32:20.584Z,36.33
2018-03-23T14:34:49.790Z,36.28
2018-03-23T14:37:19.053Z,36.45
2018-03-23T14:39:48.408Z,36.48
2018-03-23T14:42:17.628Z,36.53
2018-03-23T14:44:46.946Z,36.62
2018-03-23T14:47:16.747Z,36.64
2018-03-23T14:49:45.886Z,36.96
2018-03-23T14:52:15.401Z,36.78
2018-03-23T14:54:44.674Z,36.72
2018-03-23T14:57:14.198Z,36.73
2018-03-23T14:59:43.577Z,36.79
2018-03-23T15:02:12.829Z,37.04
2018-03-23T15:04:42.456Z,37.13
2018-03-23T15:07:12.169Z,37.31
2018-03-23T15:09:41.491Z,37.26
2018-03-23T15:12:10.513Z,37.31
2018-03-23T15:14:39.768Z,37.53
2018-03-23T15:17:08.960Z,39.44
2018-03-23T15:19:39.284Z,37.62
2018-03-23T15:22:08.553Z,37.55
2018-03-23T15:24:37.536Z,37.69
2018-03-23T15:27:06.695Z,37.82
2018-03-23T15:29:36.708Z,38.10
2018-03-23T15:32:05.941Z,38.02
2018-03-23T15:34:35.128Z,38.16
2018-03-23T15:37:04.244Z,38.33
2018-03-23T15:39:33.711Z,38.31
2018-03-23T15:42:03.146Z,38.36
2018-03-23T15:44:32.580Z,38.64
2018-03-23T15:47:01.779Z,38.62
2018-03-23T15:49:31.288Z,38.88
2018-03-23T15:52:00.889Z,38.95
2018-03-23T15:54:30.126Z,39.01
2018-03-23T15:56:59.593Z,38.93
2018-03-23T15:59:29.143Z,38.92
2018-03-23T16:01:58.273Z,38.91
2018-03-23T16:04:27.727Z,38.76
2018-03-23T16:06:57.292Z,38.64
2018-03-23T16:09:26.797Z,38.71
2018-03-23T16:11:56.365Z,38.97
2018-03-23T16:14:25.681Z,38.72
2018-03-23T16:16:54.769Z,38.76
2018-03-23T16:19:23.885Z,38.54
2018-03-23T16:21:53.141Z,44.53
2018-03-23T16:24:22.348Z,38.71
2018-03-23T16:26:52.176Z,38.79
2018-03-23T16:29:21.456Z,38.98
2018-03-23T16:31:51.277Z,38.95
2018-03-23T16:34:20.522Z,38.66
2018-03-23T16:36:50.547Z,38.78
2018-03-23T16:39:19.929Z,38.63
2018-03-23T16:41:49.426Z,38.65
2018-03-23T16:44:19.069Z,38.12
2018-03-23T16:46:48.454Z,38.42
2018-03-23T16:49:17.742Z,38.32
2018-03-23T16:51:47.584Z,38.25
2018-03-23T16:54:17.141Z,38.06
2018-03-23T16:56:46.504Z,38.06
2018-03-23T16:59:15.991Z,38.60
2018-03-23T17:01:45.515Z,37.95
2018-03-23T17:04:14.989Z,38.29
2018-03-23T17:06:44.660Z,37.95
2018-03-23T17:09:13.904Z,37.80
2018-03-23T17:11:43.663Z,38.15
2018-03-23T17:14:13.281Z,38.36
2018-03-23T17:16:43.880Z,38.80
2018-03-23T17:19:13.201Z,38.98
2018-03-23T17:24:32.694Z,39.04
2018-03-23T17:27:01.869Z,39.17
2018-03-23T17:29:31.295Z,39.35
2018-03-23T17:32:00.571Z,39.44
2018-03-23T17:34:29.915Z,39.55
2018-03-23T17:36:59.050Z,39.64
2018-03-23T17:39:28.496Z,39.69
2018-03-23T17:41:57.905Z,39.83
2018-03-23T17:44:27.348Z,40.05
2018-03-23T17:46:57.331Z,40.38
2018-03-23T17:49:26.777Z,40.56
2018-03-23T17:51:56.299Z,40.82
2018-03-23T17:54:25.580Z,40.62
2018-03-23T17:56:54.717Z,40.37
2018-03-23T17:59:24.189Z,40.94
2018-03-23T18:01:53.683Z,40.78
2018-03-23T18:04:23.005Z,41.10
2018-03-23T18:06:52.204Z,40.83
2018-03-23T18:09:21.624Z,40.91
2018-03-23T18:11:50.889Z,41.71
2018-03-23T18:14:20.310Z,41.84
2018-03-23T18:16:49.470Z,42.14
2018-03-23T18:19:18.719Z,42.17
2018-03-23T18:21:48.091Z,42.48
2018-03-23T18:24:17.657Z,42.31
2018-03-23T18:26:46.942Z,42.43
2018-03-23T18:29:16.369Z,42.91
2018-03-23T18:31:45.570Z,42.79
2018-03-23T18:34:14.636Z,43.00
2018-03-23T18:36:43.855Z,42.95
2018-03-23T18:39:13.184Z,43.40
2018-03-23T18:41:42.641Z,43.40
2018-03-23T18:44:11.601Z,43.50
2018-03-23T18:46:40.833Z,44.07
2018-03-23T18:49:10.313Z,44.14
2018-03-23T18:51:39.633Z,44.15
2018-03-23T18:54:09.011Z,43.86
2018-03-23T18:56:38.547Z,44.18
2018-03-23T18:59:07.747Z,44.19
2018-03-23T19:01:36.976Z,43.86
2018-03-23T19:04:06.055Z,43.77
2018-03-23T19:06:35.372Z,44.13
2018-03-23T19:09:04.835Z,44.41
2018-03-23T19:11:33.942Z,44.22
2018-03-23T19:14:03.529Z,44.38
2018-03-23T19:16:32.809Z,44.57
2018-03-23T19:19:02.130Z,44.27
2018-03-23T19:21:31.632Z,44.18
2018-03-23T19:24:01.137Z,43.73
2018-03-23T19:26:30.356Z,43.62
2018-03-23T19:28:59.541Z,43.24
2018-03-23T19:31:28.823Z,43.81
2018-03-23T19:33:58.072Z,43.70
2018-03-23T19:36:27.677Z,43.98
2018-03-23T19:38:57.095Z,43.70
2018-03-23T19:41:26.568Z,44.17
2018-03-23T19:43:56.240Z,43.97
2018-03-23T19:46:26.740Z,43.80
2018-03-23T19:48:56.039Z,43.89
2018-03-23T19:51:25.286Z,44.31
2018-03-23T19:53:54.661Z,44.62
2018-03-23T19:56:23.916Z,44.80
2018-03-23T19:58:53.248Z,44.72
2018-03-23T20:01:22.708Z,44.77
2018-03-23T20:03:52.196Z,44.83
2018-03-23T20:06:21.467Z,44.71
2018-03-23T20:08:50.824Z,44.60
2018-03-23T20:11:20.156Z,44.72
2018-03-23T20:13:54.885Z,44.85
2018-03-23T20:16:24.156Z,45.12
2018-03-23T20:18:53.379Z,44.91
2018-03-23T20:21:22.352Z,45.18
2018-03-23T20:23:51.680Z,44.88
2018-03-23T20:26:21.198Z,44.32
2018-03-23T20:28:50.309Z,44.53
2018-03-23T20:31:25.853Z,44.49
2018-03-23T20:33:55.025Z,44.21
2018-03-23T20:36:24.176Z,44.51
2018-03-23T20:38:53.557Z,44.55
2018-03-23T20:41:22.727Z,44.91
2018-03-23T20:43:52.216Z,45.36
2018-03-23T20:46:21.580Z,45.17
2018-03-23T20:48:50.928Z,45.48
2018-03-23T20:51:20.115Z,45.59
2018-03-23T20:53:49.544Z,45.76
2018-03-23T20:56:18.523Z,46.13
2018-03-23T20:58:48.070Z,46.52
2018-03-23T21:01:17.285Z,46.05
2018-03-23T21:03:46.695Z,46.02
2018-03-23T21:06:16.398Z,46.57
2018-03-23T21:08:45.810Z,46.59
2018-03-23T21:11:15.422Z,46.82
2018-03-23T21:13:44.515Z,46.87
2018-03-23T21:16:13.936Z,46.95
2018-03-23T21:18:43.373Z,47.11
2018-03-23T21:21:12.472Z,47.31
2018-03-23T21:23:41.477Z,47.30
2018-03-23T21:26:10.909Z,47.21
2018-03-23T21:28:40.472Z,48.01
2018-03-23T21:31:09.701Z,47.93
2018-03-23T21:33:38.992Z,47.67
2018-03-23T21:36:08.298Z,47.89
2018-03-23T21:38:37.623Z,47.83
2018-03-23T21:41:07.005Z,47.79
2018-03-23T21:43:36.371Z,48.12
2018-03-23T21:46:05.548Z,48.05
2018-03-23T21:48:34.901Z,48.62
2018-03-23T21:51:05.260Z,48.92
2018-03-23T21:53:34.510Z,49.25
2018-03-23T21:56:03.872Z,49.35
2018-03-23T21:58:33.041Z,49.54
2018-03-23T22:01:02.703Z,49.57
2018-03-23T22:03:31.856Z,50.12
2018-03-23T22:06:01.585Z,49.50
2018-03-23T22:08:31.061Z,49.87
2018-03-23T22:11:00.617Z,49.97
2018-03-23T22:13:29.941Z,50.03
2018-03-23T22:15:59.341Z,50.47
2018-03-23T22:18:28.689Z,50.22
2018-03-23T22:20:58.015Z,50.63
2018-03-23T22:23:27.423Z,50.75
2018-03-23T22:25:56.564Z,50.96
2018-03-23T22:28:26.028Z,51.13
2018-03-23T22:30:55.263Z,51.04
2018-03-23T22:33:24.857Z,50.78
2018-03-23T22:35:54.168Z,51.05
2018-03-23T22:38:23.835Z,51.19
2018-03-23T22:40:53.067Z,50.99
2018-03-23T22:43:22.414Z,51.17
2018-03-23T22:45:51.616Z,51.70
2018-03-23T22:48:21.019Z,51.48
2018-03-23T22:50:50.365Z,51.52
2018-03-23T22:53:20.808Z,51.69
2018-03-23T22:55:50.128Z,51.37
2018-03-23T22:58:19.335Z,51.75
2018-03-23T23:00:48.563Z,51.81
2018-03-23T23:03:17.719Z,52.10
2018-03-23T23:05:47.163Z,52.03
2018-03-23T23:08:16.036Z,52.11
2018-03-23T23:10:45.294Z,52.38
2018-03-23T23:13:14.708Z,52.35
2018-03-23T23:15:44.153Z,51.88
2018-03-23T23:18:13.119Z,51.86
2018-03-23T23:20:42.411Z,51.40
2018-03-23T23:23:11.851Z,52.11
2018-03-23T23:25:41.001Z,52.39
2018-03-23T23:28:10.507Z,52.38
2018-03-23T23:30:39.600Z,51.95
2018-03-23T23:33:09.253Z,52.32
2018-03-23T23:35:38.212Z,52.69
2018-03-23T23:38:08.129Z,52.36
2018-03-23T23:40:37.412Z,52.48
2018-03-23T23:43:07.041Z,52.88
2018-03-23T23:45:36.395Z,52.68
2018-03-23T23:48:05.768Z,52.59
2018-03-23T23:50:34.927Z,52.90
2018-03-23T23:53:03.618Z,53.07
2018-03-23T23:55:33.642Z,53.00
2018-03-23T23:58:02.942Z,52.59
